createdAt,value
2022-11-24T00:02:44.338Z,5.97
2022-11-24T00:08:39.547Z,5.00
2022-11-24T00:14:33.580Z,6.77
2022-11-24T00:20:28.798Z,4.70
2022-11-24T00:26:25.682Z,5.60
2022-11-24T00:32:19.303Z,4.53
2022-11-24T00:38:14.486Z,4.20
2022-11-24T00:44:08.894Z,4.00
2022-11-24T00:50:02.501Z,4.30
2022-11-24T00:55:58.110Z,6.17
2022-11-24T01:01:51.833Z,6.10
2022-11-24T01:07:45.507Z,6.10
2022-11-24T01:13:40.799Z,4.77
2022-11-24T01:19:34.764Z,8.13
2022-11-24T01:25:28.660Z,6.10
2022-11-24T01:31:24.743Z,6.30
2022-11-24T01:37:18.420Z,5.57
2022-11-24T01:43:18.197Z,6.20
2022-11-24T01:49:16.551Z,5.60
2022-11-24T01:55:14.996Z,6.63
2022-11-24T02:01:08.757Z,4.83
2022-11-24T02:07:06.863Z,6.60
2022-11-24T02:13:01.632Z,8.47
2022-11-24T02:18:55.669Z,7.23
2022-11-24T02:24:56.413Z,4.47
2022-11-24T02:30:52.253Z,4.27
2022-11-24T02:36:46.354Z,4.77
2022-11-24T02:42:44.539Z,4.93
2022-11-24T02:48:39.666Z,4.80
2022-11-24T02:54:33.837Z,5.60
2022-11-24T03:00:27.797Z,7.23
2022-11-24T03:06:22.838Z,6.00
2022-11-24T03:12:16.095Z,4.23
2022-11-24T03:18:09.795Z,5.70
2022-11-24T03:24:04.969Z,5.43
2022-11-24T03:29:58.582Z,5.87
2022-11-24T03:35:52.212Z,4.80
2022-11-24T03:41:47.201Z,6.10
2022-11-24T03:47:40.786Z,6.70
2022-11-24T03:53:35.381Z,6.83
2022-11-24T03:59:30.019Z,5.00
2022-11-24T04:05:25.599Z,7.00
2022-11-24T04:11:33.079Z,3.53
2022-11-24T04:17:28.810Z,5.23
2022-11-24T04:23:22.479Z,6.37
2022-11-24T04:29:15.969Z,3.83
2022-11-24T04:35:11.333Z,5.03
2022-11-24T04:41:05.906Z,6.50
2022-11-24T04:46:59.464Z,4.90
2022-11-24T04:52:54.475Z,5.67
2022-11-24T04:58:49.872Z,6.77
2022-11-24T05:04:43.538Z,4.67
2022-11-24T05:10:38.547Z,6.70
2022-11-24T05:16:31.640Z,3.83
2022-11-24T05:22:25.175Z,3.60
2022-11-24T05:28:20.200Z,8.17
2022-11-24T05:34:14.605Z,7.97
2022-11-24T05:40:09.367Z,5.43
2022-11-24T05:46:04.187Z,9.00
2022-11-24T05:51:57.653Z,6.20
2022-11-24T05:57:50.640Z,5.17
2022-11-24T06:03:45.450Z,5.80
2022-11-24T06:09:39.212Z,6.37
2022-11-24T06:15:32.619Z,6.70
2022-11-24T06:21:27.426Z,6.80
2022-11-24T06:27:20.981Z,8.63
2022-11-24T06:33:14.327Z,5.87
2022-11-24T06:39:09.666Z,8.90
2022-11-24T06:45:08.785Z,7.23
2022-11-24T06:51:06.369Z,8.20
2022-11-24T06:57:01.641Z,8.37
2022-11-24T07:02:54.734Z,6.77
2022-11-24T07:08:48.402Z,6.50
2022-11-24T07:14:43.253Z,6.43
2022-11-24T07:20:37.778Z,6.97
2022-11-24T07:26:30.858Z,10.03
2022-11-24T07:32:25.674Z,8.17
2022-11-24T07:38:19.078Z,8.97
2022-11-24T07:44:13.611Z,7.33
2022-11-24T07:50:10.452Z,7.10
2022-11-24T07:56:05.902Z,12.17
2022-11-24T08:01:59.453Z,5.27
2022-11-24T08:07:54.395Z,6.73
2022-11-24T08:13:48.325Z,3.77
2022-11-24T08:19:41.853Z,6.07
2022-11-24T08:25:37.246Z,7.80
2022-11-24T08:31:34.216Z,7.93
2022-11-24T08:37:29.713Z,8.10
2022-11-24T08:43:24.127Z,6.37
2022-11-24T08:49:19.282Z,6.53
2022-11-24T08:55:12.993Z,8.67
2022-11-24T09:01:09.466Z,9.13
2022-11-24T09:07:02.910Z,8.07
2022-11-24T09:12:56.326Z,7.27
2022-11-24T09:18:56.431Z,7.90
2022-11-24T09:24:49.502Z,5.43
2022-11-24T09:30:43.070Z,9.80
2022-11-24T09:36:38.170Z,6.00
2022-11-24T09:42:46.950Z,6.43
2022-11-24T09:48:47.513Z,7.97
2022-11-24T09:54:51.570Z,7.30
2022-11-24T10:00:45.589Z,8.87
2022-11-24T10:06:43.211Z,7.47
2022-11-24T10:12:50.044Z,11.63
2022-11-24T10:18:51.618Z,6.40
2022-11-24T10:25:00.180Z,9.93
2022-11-24T10:31:06.823Z,9.10
2022-11-24T10:37:05.501Z,10.80
2022-11-24T10:42:59.165Z,7.07
2022-11-24T10:48:58.607Z,8.00
2022-11-24T10:54:57.534Z,6.43
2022-11-24T11:00:51.112Z,11.73
2022-11-24T11:06:46.077Z,7.70
2022-11-24T11:12:44.377Z,8.40
2022-11-24T11:18:38.394Z,10.40
2022-11-24T11:24:33.590Z,9.57
2022-11-24T11:36:46.236Z,11.20
2022-11-24T11:43:01.885Z,12.90
2022-11-24T11:48:56.602Z,14.10
2022-11-24T11:55:29.914Z,15.53
2022-11-24T12:01:43.083Z,8.80
2022-11-24T12:07:53.131Z,14.87
2022-11-24T12:13:58.755Z,13.10
2022-11-24T12:20:08.404Z,10.87
2022-11-24T12:26:09.356Z,9.47
2022-11-24T12:32:12.669Z,8.37
2022-11-24T12:38:22.941Z,15.70
2022-11-24T12:44:33.512Z,13.20
2022-11-24T12:50:30.653Z,9.03
2022-11-24T12:56:32.160Z,12.73
2022-11-24T13:02:38.978Z,9.60
2022-11-24T13:08:33.264Z,9.40
2022-11-24T13:14:31.753Z,8.23
2022-11-24T13:20:27.858Z,8.23
2022-11-24T13:26:32.423Z,15.27
2022-11-24T13:32:59.687Z,11.03
2022-11-24T13:38:54.916Z,13.93
2022-11-24T13:44:53.318Z,10.30
2022-11-24T13:51:16.205Z,12.70
2022-11-24T13:57:35.164Z,7.97
2022-11-24T14:03:32.657Z,11.57
2022-11-24T14:09:32.353Z,11.87
2022-11-24T14:15:29.880Z,15.27
2022-11-24T14:21:29.132Z,15.67
2022-11-24T14:27:29.867Z,12.30
2022-11-24T14:33:23.444Z,11.70
2022-11-24T14:39:19.116Z,11.67
2022-11-24T14:45:19.783Z,7.40
2022-11-24T14:51:16.882Z,10.00
2022-11-24T14:57:25.339Z,8.53
2022-11-24T15:03:20.508Z,9.97
2022-11-24T15:09:28.144Z,17.40
2022-11-24T15:15:25.184Z,8.27
2022-11-24T15:21:32.311Z,10.80
2022-11-24T15:27:25.735Z,5.23
2022-11-24T15:33:20.353Z,9.77
2022-11-24T15:39:15.298Z,15.90
2022-11-24T15:45:09.226Z,15.43
2022-11-24T15:51:04.690Z,11.37
2022-11-24T15:57:00.460Z,11.70
2022-11-24T16:02:53.583Z,10.80
2022-11-24T16:08:47.406Z,10.83
2022-11-24T16:14:42.512Z,4.77
2022-11-24T16:20:36.665Z,7.87
2022-11-24T16:26:30.060Z,7.47
2022-11-24T16:32:24.457Z,8.33
2022-11-24T16:38:18.471Z,10.90
2022-11-24T16:44:12.080Z,9.43
2022-11-24T16:50:08.618Z,6.33
2022-11-24T16:56:01.686Z,12.77
2022-11-24T17:01:55.256Z,7.93
2022-11-24T17:07:50.255Z,8.60
2022-11-24T17:13:46.641Z,16.07
2022-11-24T17:19:40.723Z,15.30
2022-11-24T17:25:35.192Z,21.93
2022-11-24T17:31:32.373Z,20.37
2022-11-24T17:37:25.959Z,15.57
2022-11-24T17:43:20.868Z,13.17
2022-11-24T17:49:14.855Z,13.73
2022-11-24T17:55:08.778Z,15.50
2022-11-24T18:01:03.814Z,10.73
2022-11-24T18:06:59.613Z,15.50
2022-11-24T18:12:53.178Z,13.50
2022-11-24T18:18:51.061Z,12.50
2022-11-24T18:24:44.716Z,11.17
2022-11-24T18:30:38.174Z,13.90
2022-11-24T18:36:33.600Z,13.60
2022-11-24T18:42:27.118Z,9.90
2022-11-24T18:48:21.331Z,10.57
2022-11-24T18:54:16.198Z,9.50
2022-11-24T19:00:11.857Z,10.27
2022-11-24T19:06:06.307Z,13.40
2022-11-24T19:12:01.144Z,8.50
2022-11-24T19:17:54.611Z,11.40
2022-11-24T19:23:48.083Z,17.53
2022-11-24T19:29:43.382Z,12.03
2022-11-24T19:35:36.944Z,13.27
2022-11-24T19:41:31.861Z,13.93
2022-11-24T19:47:28.154Z,12.53
2022-11-24T19:53:21.699Z,20.30
2022-11-24T19:59:15.851Z,13.27
2022-11-24T20:05:10.990Z,11.53
2022-11-24T20:11:05.123Z,7.63
2022-11-24T20:16:58.680Z,8.50
2022-11-24T20:22:53.483Z,6.73
2022-11-24T20:28:47.343Z,10.07
2022-11-24T20:34:40.805Z,9.70
2022-11-24T20:40:35.576Z,7.80
2022-11-24T20:46:30.724Z,9.53
2022-11-24T20:52:24.175Z,10.93
2022-11-24T20:58:18.588Z,11.57
2022-11-24T21:04:13.677Z,9.77
2022-11-24T21:10:08.148Z,9.87
2022-11-24T21:16:13.243Z,13.30
2022-11-24T21:22:06.912Z,14.37
2022-11-24T21:28:00.206Z,14.43
2022-11-24T21:33:55.890Z,14.90
2022-11-24T21:39:49.353Z,12.97
2022-11-24T21:45:42.878Z,14.77
2022-11-24T21:51:37.798Z,11.90
2022-11-24T21:57:31.077Z,11.27
2022-11-24T22:03:24.102Z,10.07
2022-11-24T22:09:19.096Z,11.30
2022-11-24T22:15:12.726Z,11.83
2022-11-24T22:21:06.754Z,9.33
2022-11-24T22:27:03.199Z,9.20
2022-11-24T22:32:56.637Z,9.40
2022-11-24T22:38:54.943Z,9.83
2022-11-24T22:44:49.848Z,9.10
2022-11-24T22:50:42.970Z,9.93
2022-11-24T22:56:35.924Z,8.80
2022-11-24T23:02:31.250Z,10.60
2022-11-24T23:08:24.728Z,9.73
2022-11-24T23:14:17.866Z,9.77
2022-11-24T23:20:14.634Z,12.77
2022-11-24T23:26:09.994Z,9.47
2022-11-24T23:32:03.463Z,11.40
2022-11-24T23:38:07.458Z,9.63
2022-11-24T23:44:01.674Z,8.43
2022-11-24T23:49:54.693Z,9.37
2022-11-24T23:55:55.515Z,8.57
